Latest Weather Observations for Noonamah

IDD60901

Issued at 3:25 pm CST Thursday 17 April 2014 (issued every 10 minutes, with the page automatically refreshed every 10 minutes)

About weather observations | Map of Darwin area stations | Latest observations for Darwin area | Other Formats
Station Details ID: 014314 Name: NOONAMAH AIRSTRIP Lat: -12.61 Lon: 131.05 Height: 17.5 m
Data from the previous 72 hours. | See also: Recent months for locations in Northern Territory
Date/Time
CST
Tmp

°C
App
Tmp
°C
Dew
Point
°C
Rel
Hum
%
Delta-T

°C
Wind Press
QNH
hPa
Press
MSL
hPa
Rain
since
9 am
mm
Dir
 
Spd
km/h
Gust
km/h
Spd
kts
Gust
kts
17/03:00pm 31.6 35.3 23.2 61 5.8 NW 9 15 5 8 1007.7 1007.5 0.0
17/02:30pm 34.6 37.3 20.6 44 9.4 ENE 7 15 4 8 1007.9 1007.7 0.0
17/02:00pm 34.1 36.5 20.1 43 9.3 SSE 7 13 4 7 1008.1 - 0.0
17/01:30pm 33.7 35.9 19.7 43 9.3 SSE 7 15 4 8 1008.6 1008.4 0.0
17/01:00pm 33.4 35.7 19.8 44 9.0 E 7 13 4 7 1008.9 - 0.0
17/12:30pm 33.0 36.2 20.5 47 8.4 NE 4 6 2 3 1009.4 1009.2 0.0
17/12:00pm 32.0 35.4 20.9 52 7.4 N 4 9 2 5 1010.0 1009.8 0.0
17/11:30am 31.0 34.6 20.6 54 6.9 SSE 2 6 1 3 1010.4 1010.2 0.0
17/11:00am 30.3 33.8 21.1 58 6.2 E 4 9 2 5 1010.9 - 0.0
17/10:30am 29.6 32.1 19.9 56 6.4 E 6 11 3 6 1011.1 1010.9 0.0
17/10:00am 27.8 31.2 20.9 66 4.6 SE 4 7 2 4 1011.0 - 0.0
17/09:30am 26.4 29.1 20.3 69 4.0 SSE 6 9 3 5 1010.8 1010.6 0.0
17/09:00am 25.3 28.6 21.4 79 2.6 SSE 6 9 3 5 1010.6 1010.4 0.0
17/08:30am 24.0 29.2 22.8 93 0.8 CALM 0 0 0 0 1010.5 1010.3 0.0
17/08:00am 23.1 27.8 21.9 93 0.8 CALM 0 0 0 0 1010.4 - 0.0
17/07:30am 22.4 26.7 21.2 93 0.8 CALM 0 0 0 0 1010.2 1010.0 0.0
17/07:00am 22.0 26.0 20.6 92 0.9 CALM 0 0 0 0 1009.9 - 0.0
17/06:30am 22.1 26.2 20.7 92 0.9 CALM 0 0 0 0 1009.8 1009.6 0.0
17/06:00am 22.3 26.5 20.9 92 0.9 CALM 0 0 0 0 1009.3 1009.1 0.0
17/05:30am 22.4 26.6 20.9 91 1.0 CALM 0 0 0 0 1009.0 1008.8 0.0
17/05:00am 22.8 26.8 21.4 92 0.9 SE 2 4 1 2 1008.8 - 0.0
17/04:30am 23.1 27.0 21.9 93 0.8 S 4 6 2 3 1008.6 1008.4 0.0
17/04:00am 23.1 27.6 21.5 91 1.1 CALM 0 0 0 0 1008.4 - 0.0
17/03:30am 23.3 28.0 21.9 92 0.9 CALM 0 4 0 2 1008.5 1008.3 0.0
17/03:00am 23.6 28.1 22.2 92 0.9 SE 2 4 1 2 1008.6 1008.4 0.0
17/02:30am 23.5 27.8 21.9 91 1.1 S 2 4 1 2 1008.7 1008.5 0.0
17/02:00am 23.6 28.3 22.0 91 1.1 CALM 0 0 0 0 1009.0 - 0.0
17/01:30am 23.6 28.3 22.0 91 1.1 CALM 0 0 0 0 1009.3 1009.1 0.0
17/01:00am 23.6 28.3 21.9 90 1.1 CALM 0 0 0 0 1009.6 - 0.0
17/12:30am 24.0 28.9 22.3 90 1.1 CALM 0 0 0 0 1009.9 1009.7 0.0
17/12:00am 24.1 28.9 22.2 89 1.3 CALM 0 0 0 0 1010.0 1009.8 0.0
 
Date/Time
CST
Tmp

°C
App
Tmp
°C
Dew
Point
°C
Rel
Hum
%
Delta-T

°C
Wind Press
QNH
hPa
Press
MSL
hPa
Rain
since
9 am
mm
Dir
 
Spd
km/h
Gust
km/h
Spd
kts
Gust
kts
16/11:30pm 24.3 29.1 22.2 88 1.4 CALM 0 0 0 0 1010.0 1009.8 0.0
16/11:00pm 24.6 29.6 22.5 88 1.4 CALM 0 0 0 0 1010.0 - 0.0
16/10:30pm 24.9 29.2 22.6 87 1.5 S 4 4 2 2 1009.9 1009.7 0.0
16/10:00pm 24.9 30.0 22.6 87 1.5 CALM 0 0 0 0 1009.9 - 0.0
16/09:30pm 25.2 30.0 22.1 83 2.1 CALM 0 2 0 1 1009.6 1009.4 0.0
16/09:00pm 25.6 29.7 22.3 82 2.2 NW 4 4 2 2 1009.2 1009.0 0.0
16/08:30pm 26.1 30.1 22.0 78 2.7 W 4 6 2 3 1008.9 1008.7 0.0
16/08:00pm 26.7 31.5 22.1 76 3.1 CALM 0 0 0 0 1008.5 - 0.0
16/07:30pm 27.8 32.7 22.3 72 3.7 CALM 0 0 0 0 1008.4 1008.2 0.0
16/07:00pm 29.4 33.9 21.6 63 5.2 CALM 0 0 0 0 1008.0 - 0.0
16/06:30pm 32.4 36.9 22.2 55 7.0 ESE 2 2 1 1 1007.7 1007.5 0.0
16/06:00pm 33.6 35.2 16.9 37 10.7 ENE 4 4 2 2 1007.5 1007.3 0.0
16/05:30pm 34.0 34.3 15.9 33 11.4 ESE 9 15 5 8 1007.2 1007.0 0.0
16/05:00pm 34.6 34.9 16.0 33 11.7 E 9 13 5 7 1007.0 - 0.0
16/04:30pm 34.6 34.7 15.5 32 12.0 ESE 9 17 5 9 1006.9 1006.7 0.0
16/04:00pm 34.8 34.8 15.2 31 12.2 ESE 9 17 5 9 1007.0 - 0.0
16/03:30pm 34.8 34.7 16.1 32 11.8 SE 11 19 6 10 1007.2 1007.0 0.0
16/03:00pm 34.6 34.1 16.0 33 11.8 ESE 13 20 7 11 1007.3 1007.1 0.0
16/02:30pm 34.7 34.5 15.6 32 12.0 ESE 11 20 6 11 1007.7 1007.5 0.0
16/02:00pm 34.5 33.8 15.4 32 11.9 E 13 22 7 12 1008.0 - 0.0
16/01:30pm 34.1 33.8 16.5 35 11.2 ESE 13 20 7 11 1008.4 1008.2 0.0
16/01:00pm 33.7 33.9 15.7 34 11.3 SE 9 20 5 11 1008.9 - 0.0
16/12:30pm 33.2 33.5 16.1 35 10.8 E 9 13 5 7 1009.3 1009.1 0.0
16/12:00pm 33.4 34.0 16.7 36 10.6 SE 9 19 5 10 1009.7 1009.5 0.0
16/11:30am 32.6 33.4 16.4 37 10.2 ESE 7 15 4 8 1010.2 1010.0 0.0
16/11:00am 32.3 32.7 16.2 38 10.1 ESE 9 13 5 7 1010.8 - 0.0
16/10:30am 31.7 32.6 17.6 43 9.0 E 9 15 5 8 1011.2 1011.0 0.0
16/10:00am 30.9 32.0 17.2 43 8.7 SE 7 11 4 6 1011.4 - 0.0
16/09:30am 30.1 32.8 20.6 56 6.3 SSE 7 15 4 8 1011.3 1011.1 0.0
16/09:00am 28.7 33.1 23.4 73 3.6 S 6 7 3 4 1011.1 1010.9 0.0
16/08:30am 27.3 32.2 23.7 81 2.5 SSE 4 6 2 3 1010.9 1010.7 0.0
16/08:00am 25.8 30.9 23.3 86 1.7 SE 2 4 1 2 1010.7 - 0.0
16/07:30am 23.7 28.7 22.5 93 0.8 CALM 0 0 0 0 1010.7 1010.5 0.0
16/07:00am 22.4 26.6 21.0 92 0.9 CALM 0 0 0 0 1010.3 - 0.0
16/06:30am 22.6 26.9 21.2 92 0.9 CALM 0 0 0 0 1010.0 1009.8 0.0
16/06:00am 22.6 26.9 21.2 92 0.9 CALM 0 0 0 0 1009.9 1009.7 0.0
16/05:30am 23.0 27.5 21.6 92 0.9 CALM 0 0 0 0 1009.6 1009.4 0.0
16/05:00am 23.2 27.8 21.8 92 0.9 CALM 0 0 0 0 1009.5 - 0.0
16/04:30am 23.4 28.1 22.0 92 0.9 CALM 0 0 0 0 1009.5 1009.3 0.0
16/04:00am 23.5 28.3 22.1 92 0.9 CALM 0 0 0 0 1009.5 - 0.0
16/03:30am 23.8 28.4 22.4 92 0.9 S 2 4 1 2 1009.6 1009.4 0.0
16/03:00am 23.9 28.8 22.3 91 1.1 CALM 0 0 0 0 1009.6 1009.4 0.0
16/02:30am 24.2 29.4 22.8 92 0.9 CALM 0 0 0 0 1009.7 1009.5 0.0
16/02:00am 24.1 29.1 22.5 91 1.1 CALM 0 0 0 0 1009.7 - 0.0
16/01:30am 24.1 29.0 22.4 90 1.1 CALM 0 0 0 0 1010.1 1009.9 0.0
16/01:00am 24.3 29.4 22.6 90 1.1 CALM 0 0 0 0 1010.3 - 0.0
16/12:30am 24.5 29.7 22.8 90 1.1 CALM 0 0 0 0 1010.4 1010.2 0.0
16/12:00am 25.0 30.3 23.1 89 1.3 CALM 0 0 0 0 1010.5 1010.3 0.0
 
Date/Time
CST
Tmp

°C
App
Tmp
°C
Dew
Point
°C
Rel
Hum
%
Delta-T

°C
Wind Press
QNH
hPa
Press
MSL
hPa
Rain
since
9 am
mm
Dir
 
Spd
km/h
Gust
km/h
Spd
kts
Gust
kts
15/11:30pm 24.9 30.1 22.8 88 1.4 CALM 0 0 0 0 1010.6 1010.4 0.0
15/11:00pm 25.3 29.8 23.0 87 1.6 SSW 4 6 2 3 1010.6 - 0.0
15/10:30pm 25.1 29.6 23.0 88 1.4 NNE 4 7 2 4 1010.6 1010.4 0.0
15/10:00pm 25.3 30.6 23.0 87 1.6 CALM 0 0 0 0 1010.3 - 0.0
15/09:30pm 26.0 31.4 23.3 85 1.8 CALM 0 0 0 0 1010.3 1010.1 0.0
15/09:00pm 26.4 31.8 23.3 83 2.1 CALM 0 0 0 0 1010.2 1010.0 0.0
15/08:30pm 26.9 32.1 22.9 79 2.7 CALM 0 0 0 0 1009.9 1009.7 0.0
15/08:00pm 27.7 32.9 22.9 75 3.3 CALM 0 0 0 0 1009.6 - 0.0
15/07:30pm 28.6 33.3 22.6 70 4.1 N 2 4 1 2 1009.1 1008.9 0.0
15/07:00pm 29.9 33.7 21.6 61 5.6 NE 4 6 2 3 1008.6 - 0.0
15/06:30pm 31.2 33.9 19.5 49 7.7 NNE 4 6 2 3 1008.3 1008.1 0.0
15/06:00pm 32.2 34.4 18.4 44 9.0 NE 4 6 2 3 1008.0 1007.8 0.0
15/05:30pm 33.3 35.1 18.3 41 9.8 ENE 6 7 3 4 1007.8 1007.6 0.0
15/05:00pm 33.8 34.3 16.6 35 10.9 ESE 9 15 5 8 1007.5 - 0.0
15/04:30pm 33.9 34.1 16.7 35 11.0 SE 11 17 6 9 1007.4 1007.2 0.0
15/04:00pm 34.0 33.5 15.9 33 11.4 ESE 13 19 7 10 1007.3 - 0.0
15/03:30pm 34.0 33.9 15.9 33 11.4 SE 11 19 6 10 1007.6 1007.4 0.0
15/03:00pm 33.9 33.7 15.8 33 11.4 ESE 11 19 6 10 1007.7 1007.5 0.0
15/02:30pm 33.9 33.7 16.7 35 11.0 SE 13 22 7 12 1007.9 1007.7 0.0
15/02:00pm 34.0 33.3 16.4 35 11.1 E 15 22 8 12 1008.1 - 0.0
15/01:30pm 33.5 33.0 16.8 36 10.6 SE 15 22 8 12 1008.5 1008.3 0.0
15/01:00pm 33.0 32.6 18.0 41 9.7 ESE 17 26 9 14 1009.0 - 0.0
15/12:30pm 33.1 32.9 18.5 42 9.5 ESE 17 30 9 16 1009.6 1009.4 0.0
15/12:00pm 32.2 32.1 18.8 45 8.7 ESE 17 26 9 14 1009.9 1009.7 0.0
15/11:30am 32.1 33.0 20.0 48 8.0 SE 15 22 8 12 1010.5 1010.3 0.0
15/11:00am 30.5 32.3 21.9 60 5.8 SE 15 20 8 11 1011.2 - 0.0
15/10:30am 29.1 32.4 22.6 68 4.4 SE 9 17 5 9 1011.6 1011.4 0.0
15/10:00am 27.9 31.4 22.8 74 3.5 SE 9 13 5 7 1011.7 - 0.0
15/09:30am 27.1 31.0 22.9 78 2.9 SE 7 11 4 6 1011.3 1011.1 0.0
15/09:00am 26.6 30.8 23.5 83 2.1 SSE 7 13 4 7 1011.1 1010.9 0.2
15/08:30am 26.1 31.2 23.4 85 1.8 E 2 4 1 2 1011.0 1010.8 0.2
15/08:00am 25.8 30.5 23.3 86 1.7 E 4 4 2 2 1010.6 - 0.2
15/07:30am 25.7 30.3 23.2 86 1.7 ESE 4 6 2 3 1010.2 1010.0 0.2
15/07:00am 25.7 30.7 23.2 86 1.7 S 2 4 1 2 1009.9 - 0.2
15/06:30am 25.7 30.2 23.0 85 1.8 SSE 4 7 2 4 1009.6 1009.4 0.2
15/06:00am 25.9 30.3 22.8 83 2.1 SSE 4 6 2 3 1009.4 1009.2 0.2
15/05:30am 25.7 29.9 23.2 86 1.7 SSE 6 9 3 5 1009.1 1008.9 0.2
15/05:00am 25.7 30.4 23.4 87 1.6 SSE 4 6 2 3 1008.9 - 0.2
15/04:30am 25.7 30.4 23.4 87 1.6 SSE 4 6 2 3 1009.0 1008.8 0.2
15/04:00am 25.8 30.3 23.7 88 1.4 SE 6 9 3 5 1009.0 - 0.2
15/03:30am 25.9 30.5 23.8 88 1.4 SE 6 7 3 4 1009.2 1009.0 0.2
15/03:00am 26.0 31.3 23.7 87 1.6 S 2 4 1 2 1009.4 1009.2 0.2
15/02:30am 26.0 30.8 23.5 86 1.7 SW 4 6 2 3 1009.5 1009.3 0.2
15/02:00am 26.2 31.3 23.3 84 2.0 S 2 4 1 2 1009.7 - 0.2
15/01:30am 26.4 31.7 23.7 85 1.9 ENE 2 4 1 2 1009.6 1009.4 0.2
15/01:00am 26.4 32.3 24.1 87 1.6 CALM 0 6 0 3 1009.8 - 0.2
15/12:30am 26.5 32.3 24.5 89 1.4 NNE 2 2 1 1 1010.0 1009.8 0.2
15/12:00am 26.6 32.7 24.4 88 1.5 CALM 0 0 0 0 1010.0 1009.8 0.2
 
Date/Time
CST
Tmp

°C
App
Tmp
°C
Dew
Point
°C
Rel
Hum
%
Delta-T

°C
Wind Press
QNH
hPa
Press
MSL
hPa
Rain
since
9 am
mm
Dir
 
Spd
km/h
Gust
km/h
Spd
kts
Gust
kts
14/11:30pm 26.7 32.4 24.4 87 1.6 SE 2 4 1 2 1010.3 1010.1 0.2
14/11:00pm 26.6 32.3 24.4 88 1.5 SSE 2 4 1 2 1010.6 - 0.2
14/10:30pm 26.6 32.7 24.4 88 1.5 CALM 0 0 0 0 1010.4 1010.2 0.2
14/10:00pm 26.7 31.9 24.2 86 1.7 SE 4 4 2 2 1010.4 - 0.2
14/09:30pm 26.8 31.9 24.1 85 1.9 SSE 4 7 2 4 1010.3 1010.1 0.2
14/09:00pm 27.1 33.1 24.2 84 2.0 CALM 0 0 0 0 1010.1 1009.9 0.2
14/08:30pm 27.2 32.2 23.9 82 2.3 N 4 4 2 2 1009.7 1009.5 0.2
14/08:00pm 27.4 32.3 23.6 80 2.6 N 4 6 2 3 1009.4 - 0.2
14/07:30pm 27.8 32.3 23.6 78 2.9 N 6 11 3 6 1009.0 1008.8 0.2
14/07:00pm 28.4 32.9 22.9 72 3.7 N 4 6 2 3 1008.4 - 0.2
14/06:30pm 29.5 33.6 22.2 65 5.0 NNE 4 7 2 4 1008.2 1008.0 0.2
14/06:00pm 30.0 33.5 21.9 62 5.5 NNE 6 9 3 5 1007.8 1007.6 0.2
14/05:30pm 31.2 34.5 21.9 57 6.3 NE 7 11 4 6 1007.2 1007.0 0.2
14/05:00pm 31.1 33.5 21.6 57 6.4 NE 11 20 6 11 1007.1 - 0.2
14/04:30pm 32.8 34.7 22.0 53 7.4 NNE 15 28 8 15 1006.7 1006.5 0.2
14/04:00pm 33.1 34.9 20.3 47 8.5 NNE 11 20 6 11 1006.3 - 0.2
14/03:30pm 33.8 35.5 20.2 44 9.1 N 11 22 6 12 1006.5 1006.3 0.2

Latest Capital City Observations: Canberra | Sydney | Melbourne | Brisbane | Adelaide | Perth | Hobart | Darwin

Other Formats:

Comma delimited format used in spreadsheet applications
http://www.bom.gov.au/fwo/IDD60901/IDD60901.94105.axf

JavaScript Object Notation format (JSON) in row-major order
http://www.bom.gov.au/fwo/IDD60901/IDD60901.94105.json